sensor_id;sensor_type;location;lat;lon;timestamp;P1;durP1;ratioP1;P2;durP2;ratioP2
16624;SDS011;8426;48.496;9.098;2023-07-28T07:11:05;2.38;;;1.70;;
16624;SDS011;8426;48.496;9.098;2023-07-28T07:16:12;3.10;;;1.67;;
16624;SDS011;8426;48.496;9.098;2023-07-28T07:21:25;2.22;;;1.60;;
16624;SDS011;8426;48.496;9.098;2023-07-28T07:26:31;2.00;;;1.60;;
16624;SDS011;8426;48.496;9.098;2023-07-28T07:31:38;4.80;;;2.03;;
16624;SDS011;8426;48.496;9.098;2023-07-28T07:36:42;3.83;;;1.83;;
16624;SDS011;8426;48.496;9.098;2023-07-28T07:41:47;2.38;;;1.55;;
16624;SDS011;8426;48.496;9.098;2023-07-28T07:46:50;2.78;;;1.60;;
16624;SDS011;8426;48.496;9.098;2023-07-28T07:51:54;1.88;;;1.30;;
16624;SDS011;8426;48.496;9.098;2023-07-28T07:57:03;3.78;;;1.60;;
16624;SDS011;8426;48.496;9.098;2023-07-28T08:02:11;2.47;;;1.55;;
16624;SDS011;8426;48.496;9.098;2023-07-28T08:07:18;2.00;;;1.55;;
16624;SDS011;8426;48.496;9.098;2023-07-28T08:12:26;2.67;;;1.50;;
16624;SDS011;8426;48.496;9.098;2023-07-28T08:17:30;3.50;;;1.75;;
16624;SDS011;8426;48.496;9.098;2023-07-28T08:22:36;2.65;;;2.00;;
16624;SDS011;8426;48.496;9.098;2023-07-28T08:27:43;5.45;;;1.98;;
16624;SDS011;8426;48.496;9.098;2023-07-28T08:32:50;7.70;;;1.95;;
16624;SDS011;8426;48.496;9.098;2023-07-28T08:37:55;2.80;;;2.15;;
16624;SDS011;8426;48.496;9.098;2023-07-28T08:43:00;4.13;;;1.75;;
16624;SDS011;8426;48.496;9.098;2023-07-28T08:48:08;6.10;;;2.00;;
16624;SDS011;8426;48.496;9.098;2023-07-28T08:53:24;6.85;;;1.90;;
16624;SDS011;8426;48.496;9.098;2023-07-28T08:58:30;15.20;;;1.88;;
16624;SDS011;8426;48.496;9.098;2023-07-28T09:03:33;5.40;;;1.65;;
16624;SDS011;8426;48.496;9.098;2023-07-28T09:08:43;1.80;;;1.35;;
16624;SDS011;8426;48.496;9.098;2023-07-28T09:13:48;5.15;;;1.65;;
16624;SDS011;8426;48.496;9.098;2023-07-28T09:18:58;2.72;;;1.83;;
16624;SDS011;8426;48.496;9.098;2023-07-28T09:24:07;4.63;;;2.08;;
16624;SDS011;8426;48.496;9.098;2023-07-28T09:29:14;3.70;;;2.00;;
16624;SDS011;8426;48.496;9.098;2023-07-28T09:34:23;6.93;;;1.38;;
16624;SDS011;8426;48.496;9.098;2023-07-28T09:39:28;6.72;;;1.80;;
16624;SDS011;8426;48.496;9.098;2023-07-28T09:44:33;2.03;;;1.30;;
16624;SDS011;8426;48.496;9.098;2023-07-28T09:49:36;2.60;;;1.27;;
16624;SDS011;8426;48.496;9.098;2023-07-28T09:54:44;4.13;;;1.73;;
16624;SDS011;8426;48.496;9.098;2023-07-28T09:59:54;2.03;;;1.35;;
16624;SDS011;8426;48.496;9.098;2023-07-28T10:05:00;2.60;;;1.58;;
16624;SDS011;8426;48.496;9.098;2023-07-28T10:10:04;2.33;;;1.42;;
16624;SDS011;8426;48.496;9.098;2023-07-28T10:15:13;1.95;;;1.48;;
16624;SDS011;8426;48.496;9.098;2023-07-28T10:20:31;1.55;;;1.45;;
16624;SDS011;8426;48.496;9.098;2023-07-28T10:25:37;2.63;;;1.30;;
16624;SDS011;8426;48.496;9.098;2023-07-28T10:30:52;3.90;;;1.77;;
16624;SDS011;8426;48.496;9.098;2023-07-28T10:35:57;3.25;;;1.48;;
16624;SDS011;8426;48.496;9.098;2023-07-28T10:41:07;3.67;;;1.77;;
16624;SDS011;8426;48.496;9.098;2023-07-28T10:46:15;2.92;;;1.75;;
16624;SDS011;8426;48.496;9.098;2023-07-28T10:51:21;4.53;;;1.73;;
16624;SDS011;8426;48.496;9.098;2023-07-28T10:56:26;3.95;;;2.00;;
16624;SDS011;8426;48.496;9.098;2023-07-28T11:01:32;6.03;;;1.50;;
16624;SDS011;8426;48.496;9.098;2023-07-28T11:06:36;4.28;;;1.58;;
16624;SDS011;8426;48.496;9.098;2023-07-28T11:11:42;1.83;;;1.55;;
16624;SDS011;8426;48.496;9.098;2023-07-28T11:16:49;2.65;;;1.90;;
16624;SDS011;8426;48.496;9.098;2023-07-28T11:21:54;4.15;;;2.42;;
16624;SDS011;8426;48.496;9.098;2023-07-28T11:26:59;4.93;;;2.10;;
16624;SDS011;8426;48.496;9.098;2023-07-28T11:32:05;4.90;;;1.88;;
16624;SDS011;8426;48.496;9.098;2023-07-28T11:37:11;3.55;;;2.10;;
16624;SDS011;8426;48.496;9.098;2023-07-28T11:42:14;2.67;;;1.75;;
16624;SDS011;8426;48.496;9.098;2023-07-28T11:47:21;3.58;;;2.05;;
16624;SDS011;8426;48.496;9.098;2023-07-28T11:52:28;2.72;;;1.90;;
16624;SDS011;8426;48.496;9.098;2023-07-28T11:57:33;2.58;;;2.08;;
16624;SDS011;8426;48.496;9.098;2023-07-28T12:02:38;7.57;;;1.95;;
16624;SDS011;8426;48.496;9.098;2023-07-28T12:07:41;2.28;;;1.77;;
16624;SDS011;8426;48.496;9.098;2023-07-28T12:12:50;5.38;;;1.80;;
16624;SDS011;8426;48.496;9.098;2023-07-28T12:18:02;2.65;;;1.70;;
16624;SDS011;8426;48.496;9.098;2023-07-28T12:23:18;3.22;;;1.75;;
16624;SDS011;8426;48.496;9.098;2023-07-28T12:28:25;3.85;;;1.95;;
16624;SDS011;8426;48.496;9.098;2023-07-28T12:33:30;3.03;;;2.15;;
16624;SDS011;8426;48.496;9.098;2023-07-28T12:38:36;5.75;;;1.80;;
16624;SDS011;8426;48.496;9.098;2023-07-28T12:43:43;4.35;;;1.83;;
16624;SDS011;8426;48.496;9.098;2023-07-28T12:48:51;3.70;;;2.10;;
16624;SDS011;8426;48.496;9.098;2023-07-28T12:53:54;3.78;;;1.90;;
16624;SDS011;8426;48.496;9.098;2023-07-28T12:58:57;2.80;;;1.90;;
16624;SDS011;8426;48.496;9.098;2023-07-28T13:04:05;9.35;;;1.80;;
16624;SDS011;8426;48.496;9.098;2023-07-28T13:09:08;2.97;;;1.92;;
16624;SDS011;8426;48.496;9.098;2023-07-28T13:14:15;3.72;;;1.83;;
16624;SDS011;8426;48.496;9.098;2023-07-28T13:19:20;3.00;;;2.03;;
16624;SDS011;8426;48.496;9.098;2023-07-28T13:24:23;2.35;;;1.90;;
16624;SDS011;8426;48.496;9.098;2023-07-28T13:29:26;2.42;;;2.00;;
16624;SDS011;8426;48.496;9.098;2023-07-28T13:34:31;3.70;;;2.15;;
16624;SDS011;8426;48.496;9.098;2023-07-28T13:39:35;2.85;;;2.17;;
16624;SDS011;8426;48.496;9.098;2023-07-28T13:44:38;2.08;;;1.70;;
16624;SDS011;8426;48.496;9.098;2023-07-28T13:49:49;2.85;;;1.70;;
16624;SDS011;8426;48.496;9.098;2023-07-28T13:54:53;3.10;;;2.08;;
16624;SDS011;8426;48.496;9.098;2023-07-28T13:59:59;4.13;;;1.88;;
16624;SDS011;8426;48.496;9.098;2023-07-28T14:05:04;4.85;;;1.92;;
16624;SDS011;8426;48.496;9.098;2023-07-28T14:10:08;3.53;;;2.22;;
16624;SDS011;8426;48.496;9.098;2023-07-28T14:15:11;2.35;;;1.73;;
16624;SDS011;8426;48.496;9.098;2023-07-28T14:20:16;3.45;;;1.80;;
16624;SDS011;8426;48.496;9.098;2023-07-28T14:25:19;2.50;;;2.00;;
16624;SDS011;8426;48.496;9.098;2023-07-28T14:30:22;4.45;;;2.20;;
16624;SDS011;8426;48.496;9.098;2023-07-28T14:35:27;2.70;;;2.08;;
16624;SDS011;8426;48.496;9.098;2023-07-28T14:40:31;3.65;;;2.05;;
16624;SDS011;8426;48.496;9.098;2023-07-28T14:45:35;3.47;;;1.90;;
16624;SDS011;8426;48.496;9.098;2023-07-28T14:50:40;3.13;;;2.10;;
16624;SDS011;8426;48.496;9.098;2023-07-28T14:55:43;5.18;;;2.08;;
16624;SDS011;8426;48.496;9.098;2023-07-28T15:00:46;5.03;;;1.90;;
16624;SDS011;8426;48.496;9.098;2023-07-28T15:05:51;4.80;;;2.13;;
16624;SDS011;8426;48.496;9.098;2023-07-28T15:10:55;5.03;;;2.95;;
16624;SDS011;8426;48.496;9.098;2023-07-28T15:15:59;3.72;;;2.38;;
16624;SDS011;8426;48.496;9.098;2023-07-28T15:21:04;3.53;;;2.40;;
16624;SDS011;8426;48.496;9.098;2023-07-28T15:26:07;6.57;;;2.38;;
16624;SDS011;8426;48.496;9.098;2023-07-28T15:31:11;2.80;;;2.17;;
16624;SDS011;8426;48.496;9.098;2023-07-28T15:36:16;4.43;;;2.80;;
16624;SDS011;8426;48.496;9.098;2023-07-28T15:41:19;5.13;;;2.58;;
16624;SDS011;8426;48.496;9.098;2023-07-28T15:46:23;4.80;;;2.38;;
16624;SDS011;8426;48.496;9.098;2023-07-28T15:51:27;4.78;;;2.35;;
16624;SDS011;8426;48.496;9.098;2023-07-28T15:56:30;3.00;;;2.13;;
16624;SDS011;8426;48.496;9.098;2023-07-28T16:01:35;6.05;;;2.33;;
16624;SDS011;8426;48.496;9.098;2023-07-28T16:06:40;3.28;;;2.28;;
16624;SDS011;8426;48.496;9.098;2023-07-28T16:11:43;2.70;;;1.80;;
16624;SDS011;8426;48.496;9.098;2023-07-28T16:16:47;2.40;;;1.80;;
16624;SDS011;8426;48.496;9.098;2023-07-28T16:21:52;4.10;;;1.75;;
16624;SDS011;8426;48.496;9.098;2023-07-28T16:26:59;2.72;;;2.00;;
16624;SDS011;8426;48.496;9.098;2023-07-28T16:32:03;4.00;;;1.60;;
16624;SDS011;8426;48.496;9.098;2023-07-28T16:37:09;2.38;;;2.00;;
16624;SDS011;8426;48.496;9.098;2023-07-28T16:42:13;3.53;;;1.80;;
16624;SDS011;8426;48.496;9.098;2023-07-28T16:47:16;5.47;;;2.10;;
16624;SDS011;8426;48.496;9.098;2023-07-28T16:52:22;2.55;;;2.00;;
16624;SDS011;8426;48.496;9.098;2023-07-28T16:57:26;2.78;;;1.83;;
16624;SDS011;8426;48.496;9.098;2023-07-28T17:02:29;2.47;;;1.85;;
16624;SDS011;8426;48.496;9.098;2023-07-28T17:07:34;3.42;;;2.00;;
16624;SDS011;8426;48.496;9.098;2023-07-28T17:12:37;2.65;;;1.50;;
16624;SDS011;8426;48.496;9.098;2023-07-28T17:17:41;5.05;;;2.20;;
16624;SDS011;8426;48.496;9.098;2023-07-28T17:22:45;3.50;;;1.70;;
16624;SDS011;8426;48.496;9.098;2023-07-28T17:27:49;4.47;;;1.92;;
16624;SDS011;8426;48.496;9.098;2023-07-28T17:32:53;8.77;;;2.00;;
16624;SDS011;8426;48.496;9.098;2023-07-28T17:37:57;4.75;;;1.95;;
16624;SDS011;8426;48.496;9.098;2023-07-28T17:43:02;3.35;;;1.83;;
16624;SDS011;8426;48.496;9.098;2023-07-28T17:48:06;6.90;;;2.17;;
16624;SDS011;8426;48.496;9.098;2023-07-28T17:53:11;4.80;;;1.88;;
16624;SDS011;8426;48.496;9.098;2023-07-28T17:58:15;2.53;;;1.52;;
16624;SDS011;8426;48.496;9.098;2023-07-28T18:03:18;1.80;;;1.05;;
16624;SDS011;8426;48.496;9.098;2023-07-28T18:08:23;2.42;;;1.35;;
16624;SDS011;8426;48.496;9.098;2023-07-28T18:13:27;2.15;;;1.00;;
16624;SDS011;8426;48.496;9.098;2023-07-28T18:18:30;2.65;;;0.90;;
16624;SDS011;8426;48.496;9.098;2023-07-28T18:23:35;2.10;;;0.80;;
16624;SDS011;8426;48.496;9.098;2023-07-28T18:28:38;2.47;;;0.90;;
16624;SDS011;8426;48.496;9.098;2023-07-28T18:33:42;1.30;;;0.98;;
16624;SDS011;8426;48.496;9.098;2023-07-28T18:38:46;0.98;;;0.70;;
16624;SDS011;8426;48.496;9.098;2023-07-28T18:43:50;0.88;;;0.52;;
16624;SDS011;8426;48.496;9.098;2023-07-28T18:48:53;1.75;;;0.70;;
16624;SDS011;8426;48.496;9.098;2023-07-28T18:53:58;1.00;;;0.60;;
16624;SDS011;8426;48.496;9.098;2023-07-28T18:59:01;1.90;;;0.65;;
16624;SDS011;8426;48.496;9.098;2023-07-28T19:04:04;1.30;;;0.80;;
16624;SDS011;8426;48.496;9.098;2023-07-28T19:09:09;1.33;;;1.00;;
16624;SDS011;8426;48.496;9.098;2023-07-28T19:14:12;5.05;;;1.00;;
16624;SDS011;8426;48.496;9.098;2023-07-28T19:19:15;4.10;;;1.25;;
16624;SDS011;8426;48.496;9.098;2023-07-28T19:24:20;2.30;;;1.10;;
16624;SDS011;8426;48.496;9.098;2023-07-28T19:29:26;2.88;;;1.20;;
16624;SDS011;8426;48.496;9.098;2023-07-28T19:34:29;2.08;;;1.13;;
16624;SDS011;8426;48.496;9.098;2023-07-28T19:39:35;5.30;;;1.40;;
16624;SDS011;8426;48.496;9.098;2023-07-28T19:44:38;1.98;;;1.33;;
16624;SDS011;8426;48.496;9.098;2023-07-28T19:49:43;2.60;;;1.00;;
16624;SDS011;8426;48.496;9.098;2023-07-28T19:54:57;2.90;;;0.90;;
16624;SDS011;8426;48.496;9.098;2023-07-28T20:00:00;1.52;;;1.08;;
16624;SDS011;8426;48.496;9.098;2023-07-28T20:05:05;1.92;;;0.90;;
16624;SDS011;8426;48.496;9.098;2023-07-28T20:10:11;1.80;;;0.90;;
16624;SDS011;8426;48.496;9.098;2023-07-28T20:15:14;5.07;;;2.35;;
16624;SDS011;8426;48.496;9.098;2023-07-28T20:20:18;1.83;;;0.80;;
16624;SDS011;8426;48.496;9.098;2023-07-28T20:25:23;4.65;;;0.77;;
16624;SDS011;8426;48.496;9.098;2023-07-28T20:30:26;2.38;;;0.98;;
16624;SDS011;8426;48.496;9.098;2023-07-28T20:35:30;1.77;;;0.70;;
16624;SDS011;8426;48.496;9.098;2023-07-28T20:40:35;1.65;;;0.63;;
16624;SDS011;8426;48.496;9.098;2023-07-28T20:45:38;1.30;;;0.85;;
16624;SDS011;8426;48.496;9.098;2023-07-28T20:50:42;2.03;;;1.10;;
16624;SDS011;8426;48.496;9.098;2023-07-28T20:55:46;1.20;;;0.80;;
16624;SDS011;8426;48.496;9.098;2023-07-28T21:00:50;1.70;;;0.95;;
16624;SDS011;8426;48.496;9.098;2023-07-28T21:05:54;1.70;;;1.13;;
16624;SDS011;8426;48.496;9.098;2023-07-28T21:10:58;5.32;;;1.17;;
16624;SDS011;8426;48.496;9.098;2023-07-28T21:16:02;1.30;;;0.90;;
16624;SDS011;8426;48.496;9.098;2023-07-28T21:21:07;3.47;;;1.20;;
16624;SDS011;8426;48.496;9.098;2023-07-28T21:26:11;1.70;;;0.77;;
16624;SDS011;8426;48.496;9.098;2023-07-28T21:31:15;0.90;;;0.57;;
16624;SDS011;8426;48.496;9.098;2023-07-28T21:36:19;1.58;;;0.90;;
16624;SDS011;8426;48.496;9.098;2023-07-28T21:41:24;1.90;;;0.93;;
16624;SDS011;8426;48.496;9.098;2023-07-28T21:46:27;3.85;;;1.00;;
16624;SDS011;8426;48.496;9.098;2023-07-28T21:51:31;1.08;;;0.80;;
16624;SDS011;8426;48.496;9.098;2023-07-28T21:56:35;4.15;;;0.80;;
16624;SDS011;8426;48.496;9.098;2023-07-28T22:01:39;0.98;;;0.80;;
16624;SDS011;8426;48.496;9.098;2023-07-28T22:06:42;2.38;;;1.63;;
16624;SDS011;8426;48.496;9.098;2023-07-28T22:11:46;1.00;;;0.80;;
16624;SDS011;8426;48.496;9.098;2023-07-28T22:16:50;1.58;;;0.98;;
16624;SDS011;8426;48.496;9.098;2023-07-28T22:21:53;1.65;;;0.80;;
16624;SDS011;8426;48.496;9.098;2023-07-28T22:26:59;1.15;;;0.68;;
16624;SDS011;8426;48.496;9.098;2023-07-28T22:32:02;0.68;;;0.50;;
16624;SDS011;8426;48.496;9.098;2023-07-28T22:37:06;1.25;;;0.70;;
16624;SDS011;8426;48.496;9.098;2023-07-28T22:42:10;0.70;;;0.70;;
16624;SDS011;8426;48.496;9.098;2023-07-28T22:47:14;1.95;;;1.10;;
16624;SDS011;8426;48.496;9.098;2023-07-28T22:52:17;9.27;;;1.23;;
16624;SDS011;8426;48.496;9.098;2023-07-28T22:57:23;5.95;;;2.38;;
16624;SDS011;8426;48.496;9.098;2023-07-28T23:02:27;3.92;;;1.02;;
16624;SDS011;8426;48.496;9.098;2023-07-28T23:07:30;5.68;;;1.20;;
16624;SDS011;8426;48.496;9.098;2023-07-28T23:12:35;3.03;;;1.23;;
16624;SDS011;8426;48.496;9.098;2023-07-28T23:17:38;2.65;;;1.15;;
16624;SDS011;8426;48.496;9.098;2023-07-28T23:22:43;2.42;;;1.15;;
16624;SDS011;8426;48.496;9.098;2023-07-28T23:27:48;8.77;;;1.63;;
16624;SDS011;8426;48.496;9.098;2023-07-28T23:32:51;2.00;;;1.10;;
16624;SDS011;8426;48.496;9.098;2023-07-28T23:37:54;3.40;;;1.38;;
16624;SDS011;8426;48.496;9.098;2023-07-28T23:42:59;3.97;;;1.20;;
16624;SDS011;8426;48.496;9.098;2023-07-28T23:48:03;2.05;;;1.15;;
16624;SDS011;8426;48.496;9.098;2023-07-28T23:53:06;4.43;;;1.38;;
16624;SDS011;8426;48.496;9.098;2023-07-28T23:58:11;2.45;;;1.30;;
